Arcadia, Kansas
Current Conditions -  °F | °C
As of 12:55 AM on Friday 28 Nov 2014 (Local Time) from KPTS Reporting Station
Clear Clear  
Wind Chill: 32°   Ceiling: Unl
Heat Index: 36°   Visibility: 10mi
Dew Point: 26°   Wind: 5mph
Humidity: 67%   Direction: 160°SSE
Pressure: 30.24"   Gusts: NA
Location:  37.64°N, 94.62°W
Report Text: KPTS 280655Z AUTO 16004KT 10SM CLR 02/M04 A3024 RMK AO2 T00201036
Loading
Personal Weather Stations






























Interactive Weather Map New forecast layout! Learn more

10-Day Weather Forecast

Advertisements
Track Severe Weather on mobile